Hauptseite
METAR-TAF:

METAR-TAF

Flughäfen :

Flughafen Kilimanjaro

Kilimandscharo, Tansania

Breite: 03-25S, Länge: 037-04E, Höhe: 891 m

Beobachtung

Neuester Wetterbericht von vor 26 Minuten, um 02:00 UTC
Windstille
Temperatur 20°C
Luftfeuchtigkeit 88%
Luftdruck 1013 hPa
Sichtweite 10 km oder mehr
Leicht bewölkt in der Höhe von 2100 ft

METAR: HTKJ 250200Z 00000KT 9999 FEW021 20/18 Q1013 NOSIG

Zeit: 05:26 (02:26 UTC)

Prognose

Neuester Wetterbericht von vor 3 Stunden und 26 Minuten, um 23:00 UTC
Gültige Prognose vom 25 um 00 UTC bis 25 um 24 UTC
Wind 15 kt aus Ost
Sichtweite 10 km oder mehr
Aufgelockert bewölkt in der Höhe von 2400 ft
Übergehend zu
vom 25 um 04 UTC bis 25 um 06 UTC
Wind 5 kt aus Ost
Durchbrochene Bewölkung in der Höhe von 2200 ft

TAF: HTKJ 242300Z 2500/2524 09015KT 9999 SCT024 BECMG 2504/2506 09005KT BKN022

Wetterbeobachtungen und Prognosen von mehr als 4000 Flughäfen (METAR und TAF Bericht).

Die verfügbaren Stationen werden durch gelbe und rote Markierungen auf der Karte dargestellt.

Führen Sie die Maus auf sie, um den Namen der Station zu sehen.

Darauf klicken, um die Beobachtung von Wetterbeobachtungen und Prognosen zu sehen.

Um die Karte zu ändern : klicken Sie auf den grünen Tasten mit einem schwarzen Kreuz Zum Vergrößern, auf den grünen Button mit einem Gedankenstrich zu verkleinern, oder auf die grünen Pfeile für benachbarte Karten.


METAR-TAF: